createdAt,value
2019-05-10T00:02:10.749Z,10.12
2019-05-10T00:04:55.652Z,10.11
2019-05-10T00:07:42.838Z,10.11
2019-05-10T00:10:09.026Z,10.11
2019-05-10T00:12:46.171Z,10.11
2019-05-10T00:15:13.755Z,10.08
2019-05-10T00:17:40.087Z,10.08
2019-05-10T00:20:06.564Z,10.12
2019-05-10T00:22:32.825Z,10.08
2019-05-10T00:25:04.824Z,10.09
2019-05-10T00:27:29.189Z,10.06
2019-05-10T00:29:55.355Z,10.06
2019-05-10T00:32:21.463Z,10.05
2019-05-10T00:34:48.311Z,10.06
2019-05-10T00:37:18.394Z,10.05
2019-05-10T00:39:44.597Z,10.03
2019-05-10T00:42:10.961Z,10.03
2019-05-10T00:44:39.913Z,10.04
2019-05-10T00:47:09.052Z,9.99
2019-05-10T00:49:35.401Z,10.00
2019-05-10T00:52:01.639Z,10.03
2019-05-10T00:54:27.969Z,10.01
2019-05-10T00:56:54.317Z,10.01
2019-05-10T00:59:20.568Z,10.03
2019-05-10T01:01:47.203Z,10.02
2019-05-10T01:04:13.388Z,10.01
2019-05-10T01:06:39.736Z,10.04
2019-05-10T01:09:08.367Z,10.05
2019-05-10T01:11:34.706Z,10.03
2019-05-10T01:14:01.135Z,10.08
2019-05-10T01:16:27.443Z,10.07
2019-05-10T01:18:53.669Z,10.10
2019-05-10T01:21:22.961Z,10.10
2019-05-10T01:23:49.505Z,10.07
2019-05-10T01:26:15.806Z,10.04
2019-05-10T01:28:42.223Z,10.02
2019-05-10T01:31:08.695Z,10.04
2019-05-10T01:33:35.973Z,10.01
2019-05-10T01:36:02.101Z,10.01
2019-05-10T01:38:28.237Z,9.97
2019-05-10T01:40:54.346Z,9.97
2019-05-10T01:43:20.549Z,9.93
2019-05-10T01:45:46.769Z,9.89
2019-05-10T01:48:13.885Z,9.86
2019-05-10T01:50:40.601Z,9.85
2019-05-10T01:53:06.838Z,9.86
2019-05-10T01:55:32.984Z,9.71
2019-05-10T01:57:59.197Z,9.70
2019-05-10T02:00:25.753Z,9.63
2019-05-10T02:02:52.056Z,9.53
2019-05-10T02:05:18.805Z,9.45
2019-05-10T02:07:46.199Z,9.43
2019-05-10T02:10:13.024Z,9.41
2019-05-10T02:12:39.248Z,9.36
2019-05-10T02:15:06.555Z,9.33
2019-05-10T02:17:32.807Z,9.35
2019-05-10T02:20:00.846Z,9.24
2019-05-10T02:22:27.060Z,9.25
2019-05-10T02:24:53.247Z,9.28
2019-05-10T02:27:19.539Z,9.22
2019-05-10T02:29:45.694Z,9.15
2019-05-10T02:32:12.222Z,9.10
2019-05-10T02:34:38.739Z,9.12
2019-05-10T02:37:06.074Z,9.09
2019-05-10T02:39:32.410Z,9.13
2019-05-10T02:41:58.653Z,9.14
2019-05-10T02:44:24.891Z,9.20
2019-05-10T02:46:51.133Z,9.20
2019-05-10T02:49:17.238Z,9.16
2019-05-10T02:51:43.555Z,9.24
2019-05-10T02:54:09.928Z,9.22
2019-05-10T02:56:37.175Z,9.20
2019-05-10T02:59:04.595Z,9.20
2019-05-10T03:01:30.745Z,9.20
2019-05-10T03:04:00.575Z,9.24
2019-05-10T03:06:28.779Z,9.31
2019-05-10T03:08:55.143Z,9.36
2019-05-10T03:11:21.500Z,9.40
2019-05-10T03:13:50.402Z,9.47
2019-05-10T03:16:20.904Z,9.50
2019-05-10T03:18:50.097Z,9.42
2019-05-10T03:21:16.551Z,9.28
2019-05-10T03:23:42.820Z,9.28
2019-05-10T03:26:09.113Z,9.25
2019-05-10T03:28:35.310Z,9.32
2019-05-10T03:31:01.604Z,9.23
2019-05-10T03:33:27.934Z,9.17
2019-05-10T03:35:54.316Z,9.11
2019-05-10T03:38:20.940Z,9.11
2019-05-10T03:40:47.204Z,9.12
2019-05-10T03:43:13.407Z,9.22
2019-05-10T03:45:39.520Z,9.29
2019-05-10T03:48:05.751Z,9.19
2019-05-10T03:50:31.885Z,9.22
2019-05-10T03:52:58.466Z,9.30
2019-05-10T03:55:24.834Z,9.20
2019-05-10T03:57:51.091Z,9.15
2019-05-10T04:00:17.637Z,9.07
2019-05-10T04:02:43.975Z,9.07
2019-05-10T04:05:10.417Z,9.05
2019-05-10T04:07:36.756Z,9.13
2019-05-10T04:10:04.662Z,9.00
2019-05-10T04:12:31.184Z,8.89
2019-05-10T04:14:57.453Z,8.87
2019-05-10T04:17:24.761Z,8.83
2019-05-10T04:19:51.197Z,8.93
2019-05-10T04:22:17.423Z,8.97
2019-05-10T04:24:43.776Z,9.14
2019-05-10T04:27:10.023Z,9.28
2019-05-10T04:29:36.352Z,9.31
2019-05-10T04:32:02.693Z,9.30
2019-05-10T04:34:28.840Z,9.29
2019-05-10T04:36:55.208Z,9.31
2019-05-10T04:39:21.420Z,9.28
2019-05-10T04:41:47.729Z,9.24
2019-05-10T04:44:13.981Z,9.28
2019-05-10T04:46:40.271Z,9.23
2019-05-10T04:49:06.381Z,9.22
2019-05-10T04:51:32.729Z,9.26
2019-05-10T04:53:58.890Z,9.28
2019-05-10T04:56:25.137Z,9.30
2019-05-10T04:58:51.484Z,9.31
2019-05-10T05:01:17.846Z,9.24
2019-05-10T05:03:44.126Z,9.24
2019-05-10T05:06:10.252Z,9.23
2019-05-10T05:08:36.383Z,9.26
2019-05-10T05:11:02.748Z,9.30
2019-05-10T05:13:28.974Z,9.26
2019-05-10T05:15:55.376Z,9.23
2019-05-10T05:18:21.843Z,9.18
2019-05-10T05:20:48.153Z,9.17
2019-05-10T05:23:14.533Z,9.22
2019-05-10T05:25:41.923Z,9.23
2019-05-10T05:28:09.162Z,9.21
2019-05-10T05:30:38.651Z,9.26
2019-05-10T05:33:03.881Z,9.29
2019-05-10T05:35:30.212Z,9.28
2019-05-10T05:37:56.643Z,9.31
2019-05-10T05:40:22.954Z,9.33
2019-05-10T05:42:49.281Z,9.38
2019-05-10T05:45:15.697Z,9.44
2019-05-10T05:47:44.632Z,9.42
2019-05-10T05:50:10.411Z,9.40
2019-05-10T05:52:36.524Z,9.40
2019-05-10T05:55:05.354Z,9.45
2019-05-10T05:57:31.639Z,9.50
2019-05-10T06:00:04.246Z,9.46
2019-05-10T06:02:27.171Z,9.50
2019-05-10T06:04:54.457Z,9.51
2019-05-10T06:07:20.676Z,9.50
2019-05-10T06:09:46.882Z,9.49
2019-05-10T06:12:14.302Z,9.53
2019-05-10T06:14:42.999Z,9.51
2019-05-10T06:17:08.962Z,9.48
2019-05-10T06:19:35.279Z,9.44
2019-05-10T06:22:04.660Z,9.40
2019-05-10T06:24:29.747Z,9.36
2019-05-10T06:26:58.208Z,9.40
2019-05-10T06:29:24.175Z,9.38
2019-05-10T06:31:50.400Z,9.45
2019-05-10T06:34:17.072Z,9.45
2019-05-10T06:36:43.414Z,9.49
2019-05-10T06:39:09.773Z,9.62
2019-05-10T06:41:35.986Z,9.65
2019-05-10T06:44:02.330Z,9.64
2019-05-10T06:46:29.675Z,9.67
2019-05-10T06:49:07.208Z,9.63
2019-05-10T06:51:25.353Z,9.69
2019-05-10T06:53:53.778Z,9.72
2019-05-10T06:56:19.887Z,9.74
2019-05-10T06:58:46.103Z,9.81
2019-05-10T07:01:12.436Z,9.88
2019-05-10T07:03:38.682Z,9.92
2019-05-10T07:06:04.819Z,9.96
2019-05-10T07:08:43.269Z,9.98
2019-05-10T07:10:59.240Z,10.06
2019-05-10T07:13:25.621Z,10.07
2019-05-10T07:15:52.799Z,10.06
2019-05-10T07:18:22.618Z,10.06
2019-05-10T07:20:47.480Z,10.03
2019-05-10T07:23:13.635Z,10.06
2019-05-10T07:25:43.867Z,10.11
2019-05-10T07:28:09.277Z,10.10
2019-05-10T07:30:36.666Z,10.11
2019-05-10T07:33:03.764Z,10.11
2019-05-10T07:35:30.889Z,10.19
2019-05-10T07:37:58.488Z,10.28
2019-05-10T07:40:25.000Z,10.33
2019-05-10T07:42:51.225Z,10.45
2019-05-10T07:45:18.910Z,10.48
2019-05-10T07:47:46.039Z,10.54
2019-05-10T07:50:13.651Z,10.59
2019-05-10T07:52:43.642Z,10.53
2019-05-10T07:55:10.357Z,10.50
2019-05-10T07:57:36.574Z,10.62
2019-05-10T08:00:06.106Z,10.62
2019-05-10T08:02:32.943Z,10.71
2019-05-10T08:04:59.291Z,10.65
2019-05-10T08:07:25.641Z,10.60
2019-05-10T08:09:51.768Z,10.53
2019-05-10T08:12:19.513Z,10.67
2019-05-10T08:14:51.882Z,10.85
2019-05-10T08:17:14.259Z,10.86
2019-05-10T08:19:40.633Z,10.98
2019-05-10T08:22:09.498Z,10.99
2019-05-10T08:24:35.697Z,10.98
2019-05-10T08:27:07.975Z,11.02
2019-05-10T08:29:32.867Z,10.94
2019-05-10T08:31:58.649Z,10.94
2019-05-10T08:34:28.863Z,10.88
2019-05-10T08:36:53.037Z,11.06
2019-05-10T08:39:22.345Z,10.94
2019-05-10T08:42:03.688Z,10.87
2019-05-10T08:44:20.957Z,10.79
2019-05-10T08:46:46.405Z,10.82
2019-05-10T08:49:13.031Z,10.86
2019-05-10T08:51:43.796Z,10.75
2019-05-10T08:54:07.717Z,10.71
2019-05-10T08:56:33.949Z,10.70
2019-05-10T08:59:03.083Z,10.65
2019-05-10T09:01:30.668Z,10.53
2019-05-10T09:04:00.818Z,10.55
2019-05-10T09:06:24.863Z,10.65
2019-05-10T09:08:52.930Z,10.78
2019-05-10T09:11:19.552Z,10.95
2019-05-10T09:13:46.424Z,11.22
2019-05-10T09:16:13.619Z,11.37
2019-05-10T09:18:46.120Z,11.39
2019-05-10T09:21:10.579Z,11.66
2019-05-10T09:23:36.578Z,12.01
2019-05-10T09:26:10.317Z,12.69
2019-05-10T09:28:32.195Z,12.52
2019-05-10T09:31:15.269Z,12.79
2019-05-10T09:33:28.058Z,12.98
2019-05-10T09:35:55.199Z,12.94
2019-05-10T09:38:22.220Z,12.89
2019-05-10T09:40:52.723Z,12.51
2019-05-10T09:43:16.616Z,12.50
2019-05-10T09:45:42.960Z,11.83
2019-05-10T09:48:11.874Z,11.83
2019-05-10T09:50:44.062Z,11.97
2019-05-10T09:53:07.393Z,11.83
2019-05-10T09:55:34.092Z,11.88
2019-05-10T09:58:00.497Z,11.97
2019-05-10T10:00:32.848Z,12.16
2019-05-10T10:03:01.569Z,12.17
2019-05-10T10:05:27.916Z,12.06
2019-05-10T10:07:54.248Z,12.06
2019-05-10T10:10:28.555Z,12.23
2019-05-10T10:12:49.002Z,12.35
2019-05-10T10:15:28.352Z,12.35
2019-05-10T10:17:43.760Z,12.31
2019-05-10T10:20:10.126Z,12.21
2019-05-10T10:22:38.119Z,12.10
2019-05-10T10:25:07.387Z,12.07
2019-05-10T10:27:36.091Z,12.19
2019-05-10T10:30:06.547Z,12.44
2019-05-10T10:32:34.891Z,13.56
2019-05-10T10:35:02.877Z,13.56
2019-05-10T10:37:31.328Z,13.98
2019-05-10T10:40:03.066Z,14.00
2019-05-10T10:42:25.817Z,13.92
2019-05-10T10:44:52.038Z,13.69
2019-05-10T10:47:22.846Z,13.89
2019-05-10T10:49:46.817Z,14.12
2019-05-10T10:52:13.601Z,14.46
2019-05-10T10:54:40.102Z,14.94
2019-05-10T10:57:08.038Z,14.69
2019-05-10T10:59:34.415Z,14.75
2019-05-10T11:02:27.196Z,15.09
2019-05-10T11:04:28.600Z,15.05
2019-05-10T11:07:09.344Z,15.25
2019-05-10T11:09:22.768Z,15.41
2019-05-10T11:11:51.107Z,15.01
2019-05-10T11:14:17.121Z,14.80
2019-05-10T11:16:46.815Z,14.91
2019-05-10T11:19:15.483Z,14.67
2019-05-10T11:21:41.483Z,14.40
2019-05-10T11:24:10.226Z,14.20
2019-05-10T11:26:37.059Z,14.86
2019-05-10T11:29:03.402Z,15.62
2019-05-10T11:31:31.158Z,14.99
2019-05-10T11:34:00.919Z,14.55
2019-05-10T11:36:25.859Z,13.62
2019-05-10T11:38:58.270Z,13.81
2019-05-10T11:41:23.768Z,14.10
2019-05-10T11:43:48.184Z,14.32
2019-05-10T11:46:14.417Z,14.12
2019-05-10T11:48:42.124Z,14.27
2019-05-10T11:51:12.249Z,13.63
2019-05-10T11:53:36.945Z,13.01
2019-05-10T11:56:07.942Z,13.18
2019-05-10T11:58:37.580Z,13.31
2019-05-10T12:01:03.176Z,13.48
2019-05-10T12:03:27.688Z,14.03
2019-05-10T12:06:04.451Z,14.66
2019-05-10T12:08:22.395Z,15.49
2019-05-10T12:11:07.148Z,15.78
2019-05-10T12:13:20.833Z,15.65
2019-05-10T12:15:46.113Z,14.54
2019-05-10T12:18:14.757Z,13.87
2019-05-10T12:20:54.072Z,13.42
2019-05-10T12:23:13.504Z,13.59
2019-05-10T12:25:51.081Z,13.71
2019-05-10T12:28:05.163Z,13.79
2019-05-10T12:30:35.078Z,14.04
2019-05-10T12:33:08.985Z,14.14
2019-05-10T12:35:35.693Z,14.22
2019-05-10T12:37:56.011Z,14.38
2019-05-10T12:40:24.133Z,14.41
2019-05-10T12:42:50.649Z,14.50
2019-05-10T12:45:17.423Z,14.58
2019-05-10T12:47:43.748Z,14.54
2019-05-10T12:50:10.695Z,14.70
2019-05-10T12:52:37.044Z,14.74
2019-05-10T12:55:05.219Z,14.76
2019-05-10T12:57:31.449Z,14.47
2019-05-10T12:59:57.734Z,14.49
2019-05-10T13:02:24.043Z,14.71
2019-05-10T13:04:52.721Z,14.29
2019-05-10T13:07:18.593Z,15.26
2019-05-10T13:09:44.885Z,16.06
2019-05-10T13:12:11.124Z,16.30
2019-05-10T13:14:40.038Z,16.53
2019-05-10T13:17:10.039Z,16.25
2019-05-10T13:19:34.107Z,16.87
2019-05-10T13:22:00.799Z,17.17
2019-05-10T13:24:27.373Z,15.59
2019-05-10T13:26:53.773Z,15.34
2019-05-10T13:29:20.163Z,13.66
2019-05-10T13:31:47.484Z,14.12
2019-05-10T13:34:13.842Z,14.51
2019-05-10T13:36:39.953Z,14.56
2019-05-10T13:39:06.345Z,14.63
2019-05-10T13:41:32.573Z,14.72
2019-05-10T13:44:04.373Z,14.73
2019-05-10T13:46:27.153Z,14.68
2019-05-10T13:48:53.993Z,14.34
2019-05-10T13:51:21.568Z,14.53
2019-05-10T13:53:47.943Z,14.68
2019-05-10T13:56:14.490Z,14.30
2019-05-10T13:58:40.793Z,14.25
2019-05-10T14:01:12.963Z,14.37
2019-05-10T14:03:43.649Z,14.86
2019-05-10T14:06:03.481Z,15.11
2019-05-10T14:08:29.863Z,14.73
2019-05-10T14:11:01.397Z,14.79
2019-05-10T14:13:24.180Z,14.55
2019-05-10T14:15:50.579Z,14.65
2019-05-10T14:18:17.005Z,14.62
2019-05-10T14:20:43.360Z,14.72
2019-05-10T14:23:09.731Z,14.30
2019-05-10T14:25:38.766Z,14.30
2019-05-10T14:28:09.755Z,14.36
2019-05-10T14:30:32.856Z,14.55
2019-05-10T14:32:59.011Z,14.38
2019-05-10T14:35:25.285Z,14.48
2019-05-10T14:37:51.694Z,14.19
2019-05-10T14:40:27.987Z,14.03
2019-05-10T14:42:46.396Z,13.98
2019-05-10T14:45:13.146Z,13.95
2019-05-10T14:47:48.031Z,13.81
2019-05-10T14:50:09.144Z,13.93
2019-05-10T14:52:35.375Z,13.96
2019-05-10T14:55:02.740Z,13.92
2019-05-10T14:57:29.335Z,13.66
2019-05-10T14:59:55.563Z,13.20
2019-05-10T15:02:23.044Z,13.47
2019-05-10T15:04:50.117Z,13.55
2019-05-10T15:07:16.738Z,13.46
2019-05-10T15:09:43.269Z,13.79
2019-05-10T15:12:10.090Z,14.02
2019-05-10T15:14:37.681Z,14.29
2019-05-10T15:17:04.132Z,14.38
2019-05-10T15:19:31.364Z,14.41
2019-05-10T15:21:58.049Z,14.44
2019-05-10T15:24:24.418Z,14.10
2019-05-10T15:26:50.941Z,13.78
2019-05-10T15:29:22.500Z,13.79
2019-05-10T15:31:45.472Z,13.88
2019-05-10T15:34:11.756Z,13.84
2019-05-10T15:36:38.188Z,13.44
2019-05-10T15:39:06.162Z,13.49
2019-05-10T15:41:32.551Z,13.68
2019-05-10T15:43:58.791Z,13.49
2019-05-10T15:46:36.175Z,13.19
2019-05-10T15:48:53.329Z,13.16
2019-05-10T15:51:34.110Z,13.21
2019-05-10T15:53:47.890Z,12.83
2019-05-10T15:56:14.497Z,12.90
2019-05-10T15:58:42.578Z,12.90
2019-05-10T16:01:09.230Z,13.10
2019-05-10T16:03:35.379Z,13.02
2019-05-10T16:06:02.975Z,12.84
2019-05-10T16:08:30.221Z,12.74
2019-05-10T16:10:57.312Z,12.77
2019-05-10T16:13:25.176Z,12.49
2019-05-10T16:15:57.467Z,12.35
2019-05-10T16:18:20.064Z,12.35
2019-05-10T16:20:46.405Z,12.31
2019-05-10T16:23:12.748Z,12.31
2019-05-10T16:25:42.911Z,12.49
2019-05-10T16:28:07.355Z,12.37
2019-05-10T16:30:36.404Z,12.37
2019-05-10T16:33:01.609Z,12.64
2019-05-10T16:35:38.394Z,12.64
2019-05-10T16:37:56.525Z,12.88
2019-05-10T16:40:23.020Z,12.79
2019-05-10T16:42:49.433Z,12.92
2019-05-10T16:45:15.997Z,12.92
2019-05-10T16:47:42.315Z,12.74
2019-05-10T16:50:09.065Z,12.81
2019-05-10T16:52:35.296Z,12.99
2019-05-10T16:55:03.636Z,13.03
2019-05-10T16:57:31.911Z,12.98
2019-05-10T17:00:01.988Z,12.71
2019-05-10T17:02:26.666Z,12.71
2019-05-10T17:04:52.923Z,12.76
2019-05-10T17:07:20.667Z,12.50
2019-05-10T17:09:49.431Z,12.35
2019-05-10T17:12:15.678Z,12.38
2019-05-10T17:14:42.059Z,12.38
2019-05-10T17:17:08.402Z,12.45
2019-05-10T17:19:36.160Z,12.55
2019-05-10T17:22:02.655Z,12.74
2019-05-10T17:24:29.003Z,12.66
2019-05-10T17:26:55.369Z,12.70
2019-05-10T17:29:21.813Z,12.70
2019-05-10T17:31:48.040Z,12.54
2019-05-10T17:34:22.103Z,12.45
2019-05-10T17:36:42.748Z,12.37
2019-05-10T17:39:12.292Z,12.28
2019-05-10T17:41:38.537Z,12.28
2019-05-10T17:44:05.042Z,12.26
2019-05-10T17:46:31.374Z,12.23
2019-05-10T17:48:57.924Z,12.23
2019-05-10T17:51:24.515Z,12.23
2019-05-10T17:53:55.069Z,12.31
2019-05-10T17:56:19.185Z,12.30
2019-05-10T17:58:45.558Z,12.17
2019-05-10T18:01:11.906Z,12.24
2019-05-10T18:03:38.433Z,12.09
2019-05-10T18:06:05.132Z,11.98
2019-05-10T18:08:31.601Z,11.50
2019-05-10T18:11:03.973Z,11.28
2019-05-10T18:13:26.400Z,10.92
2019-05-10T18:15:53.046Z,10.73
2019-05-10T18:18:19.472Z,10.83
2019-05-10T18:20:45.931Z,10.91
2019-05-10T18:23:20.360Z,10.98
2019-05-10T18:25:40.529Z,11.07
2019-05-10T18:28:09.966Z,10.97
2019-05-10T18:30:36.368Z,10.87
2019-05-10T18:33:06.856Z,10.75
2019-05-10T18:35:31.157Z,10.74
2019-05-10T18:37:59.560Z,10.76
2019-05-10T18:40:31.763Z,10.66
2019-05-10T18:42:57.967Z,10.68
2019-05-10T18:45:23.381Z,10.77
2019-05-10T18:47:50.154Z,10.60
2019-05-10T18:50:16.484Z,10.54
2019-05-10T18:52:42.903Z,10.59
2019-05-10T18:55:09.478Z,10.59
2019-05-10T18:57:35.717Z,10.58
2019-05-10T19:00:03.975Z,10.79
2019-05-10T19:02:30.438Z,11.07
2019-05-10T19:04:56.816Z,11.19
2019-05-10T19:07:23.248Z,11.21
2019-05-10T19:09:49.554Z,11.07
2019-05-10T19:12:18.727Z,10.86
2019-05-10T19:14:44.206Z,10.74
2019-05-10T19:17:11.131Z,10.57
2019-05-10T19:19:41.932Z,10.56
2019-05-10T19:22:08.963Z,10.57
2019-05-10T19:24:36.071Z,10.65
2019-05-10T19:27:07.289Z,10.63
2019-05-10T19:29:31.976Z,10.62
2019-05-10T19:31:58.321Z,10.53
2019-05-10T19:34:24.548Z,10.38
2019-05-10T19:36:51.159Z,10.36
2019-05-10T19:39:17.599Z,10.38
2019-05-10T19:41:43.954Z,10.46
2019-05-10T19:44:10.147Z,10.23
2019-05-10T19:46:39.474Z,9.67
2019-05-10T19:49:07.521Z,9.75
2019-05-10T19:51:33.075Z,9.83
2019-05-10T19:53:59.309Z,9.90
2019-05-10T19:56:29.962Z,9.91
2019-05-10T19:58:53.532Z,9.86
2019-05-10T20:01:19.920Z,9.99
2019-05-10T20:03:46.402Z,10.08
2019-05-10T20:06:12.695Z,10.00
2019-05-10T20:08:40.064Z,9.94
2019-05-10T20:11:06.454Z,9.96
2019-05-10T20:13:33.007Z,9.93
2019-05-10T20:16:01.458Z,9.88
2019-05-10T20:18:27.642Z,9.86
2019-05-10T20:20:54.110Z,9.93
2019-05-10T20:23:20.359Z,9.99
2019-05-10T20:25:46.793Z,10.16
2019-05-10T20:28:13.210Z,10.27
2019-05-10T20:30:39.578Z,10.34
2019-05-10T20:33:05.756Z,10.50
2019-05-10T20:35:32.252Z,10.58
2019-05-10T20:38:01.829Z,10.50
2019-05-10T20:40:27.003Z,10.41
2019-05-10T20:42:54.455Z,10.19
2019-05-10T20:45:20.832Z,10.08
2019-05-10T20:47:47.109Z,10.01
2019-05-10T20:50:14.151Z,9.88
2019-05-10T20:52:40.455Z,9.86
2019-05-10T20:55:07.384Z,9.48
2019-05-10T20:57:33.804Z,9.41
2019-05-10T21:00:00.274Z,9.52
2019-05-10T21:02:26.799Z,9.62
2019-05-10T21:04:53.236Z,9.70
2019-05-10T21:07:19.652Z,9.62
2019-05-10T21:09:46.011Z,9.55
2019-05-10T21:12:13.472Z,9.76
2019-05-10T21:14:39.727Z,9.83
2019-05-10T21:17:05.964Z,9.88
2019-05-10T21:19:32.358Z,10.02
2019-05-10T21:21:58.844Z,10.06
2019-05-10T21:24:25.240Z,10.00
2019-05-10T21:26:51.633Z,9.89
2019-05-10T21:29:18.098Z,9.79
2019-05-10T21:31:44.539Z,9.75
2019-05-10T21:34:10.968Z,9.68
2019-05-10T21:36:37.306Z,9.62
2019-05-10T21:39:05.811Z,9.62
2019-05-10T21:41:32.335Z,9.50
2019-05-10T21:43:58.686Z,9.45
2019-05-10T21:46:25.047Z,9.36
2019-05-10T21:48:51.281Z,9.34
2019-05-10T21:51:17.438Z,9.34
2019-05-10T21:53:43.675Z,9.25
2019-05-10T21:56:09.979Z,9.07
2019-05-10T21:58:36.335Z,8.97
2019-05-10T22:01:03.168Z,8.93
2019-05-10T22:03:31.367Z,8.91
2019-05-10T22:05:57.605Z,8.87
2019-05-10T22:08:23.840Z,8.87
2019-05-10T22:10:50.078Z,8.92
2019-05-10T22:13:16.320Z,8.88
2019-05-10T22:15:42.687Z,8.74
2019-05-10T22:18:09.036Z,8.71
2019-05-10T22:20:35.357Z,8.87
2019-05-10T22:23:01.738Z,8.82
2019-05-10T22:25:28.003Z,8.94
2019-05-10T22:27:54.092Z,8.89
2019-05-10T22:30:20.448Z,8.79
2019-05-10T22:32:46.709Z,8.74
2019-05-10T22:35:13.278Z,8.71
2019-05-10T22:37:39.688Z,8.68
2019-05-10T22:40:06.122Z,8.66
2019-05-10T22:42:32.355Z,8.75
2019-05-10T22:44:58.598Z,8.76
2019-05-10T22:47:25.526Z,8.72
2019-05-10T22:49:52.055Z,8.60
2019-05-10T22:52:18.363Z,8.61
2019-05-10T22:54:44.730Z,8.55
2019-05-10T22:57:11.104Z,8.62
2019-05-10T22:59:37.430Z,8.41
2019-05-10T23:02:03.782Z,8.40
2019-05-10T23:04:30.103Z,8.55
2019-05-10T23:06:56.289Z,8.64
2019-05-10T23:09:24.948Z,8.62
2019-05-10T23:11:50.637Z,8.60
2019-05-10T23:14:17.913Z,8.66
2019-05-10T23:16:44.036Z,8.72
2019-05-10T23:19:10.242Z,8.69
2019-05-10T23:21:36.349Z,8.72
2019-05-10T23:24:04.554Z,8.72
2019-05-10T23:26:30.792Z,8.69
2019-05-10T23:28:56.999Z,8.70
2019-05-10T23:31:23.183Z,8.78
2019-05-10T23:33:49.447Z,8.72
2019-05-10T23:36:15.787Z,8.66
2019-05-10T23:38:42.161Z,8.61
2019-05-10T23:41:08.674Z,8.63
2019-05-10T23:43:34.892Z,8.63
2019-05-10T23:46:01.110Z,8.69
2019-05-10T23:48:27.204Z,8.78
2019-05-10T23:50:53.406Z,8.81
2019-05-10T23:53:19.506Z,8.84
2019-05-10T23:55:45.905Z,8.87
2019-05-10T23:58:12.264Z,8.86
